createdAt,value
2022-12-17T00:03:57.194Z,3.1
2022-12-17T00:09:22.140Z,3
2022-12-17T00:15:06.457Z,2.9
2022-12-17T00:20:30.382Z,2.9
2022-12-17T00:26:01.052Z,2.9
2022-12-17T00:31:40.549Z,2.8
2022-12-17T00:37:19.305Z,2.8
2022-12-17T00:43:00.120Z,2.7
2022-12-17T00:48:08.553Z,2.7
2022-12-17T00:53:33.298Z,2.8
2022-12-17T00:59:14.634Z,2.8
2022-12-17T01:04:42.294Z,2.7
2022-12-17T01:10:04.679Z,2.8
2022-12-17T01:15:33.114Z,2.7
2022-12-17T01:20:58.350Z,2.8
2022-12-17T01:26:40.959Z,2.7
2022-12-17T01:32:25.345Z,2.8
2022-12-17T01:38:03.411Z,2.8
2022-12-17T01:43:41.580Z,2.8
2022-12-17T01:49:19.832Z,2.9
2022-12-17T01:54:57.617Z,2.9
2022-12-17T02:00:19.292Z,3
2022-12-17T02:05:27.770Z,2.9
2022-12-17T02:10:49.213Z,3.1
2022-12-17T02:16:12.067Z,3.1
2022-12-17T02:21:34.865Z,3.1
2022-12-17T02:26:57.698Z,3.2
2022-12-17T02:32:35.478Z,3.3
2022-12-17T02:38:15.057Z,3.3
2022-12-17T02:43:54.467Z,3.3
2022-12-17T02:49:31.775Z,3.4
2022-12-17T02:54:53.816Z,3.3
2022-12-17T03:00:18.901Z,3.3
2022-12-17T03:06:33.094Z,3.3
2022-12-17T03:12:11.379Z,3.3
2022-12-17T03:17:50.419Z,3.3
2022-12-17T03:23:28.363Z,3.2
2022-12-17T03:29:06.914Z,3.3
2022-12-17T03:34:35.305Z,3.3
2022-12-17T03:40:12.155Z,3.1
2022-12-17T03:45:49.524Z,3.2
2022-12-17T03:51:11.522Z,3.1
2022-12-17T03:56:48.299Z,3.1
2022-12-17T04:02:27.265Z,3.1
2022-12-17T04:08:12.222Z,3.2
2022-12-17T04:13:55.287Z,3.2
2022-12-17T04:19:33.700Z,3.2
2022-12-17T04:24:55.460Z,3.3
2022-12-17T04:30:31.940Z,3.3
2022-12-17T04:36:16.584Z,3.3
2022-12-17T04:41:54.453Z,3.4
2022-12-17T04:47:32.211Z,3.4
2022-12-17T04:52:54.908Z,3.4
2022-12-17T04:58:32.620Z,3.6
2022-12-17T05:04:12.003Z,3.6
2022-12-17T05:09:34.562Z,3.6
2022-12-17T05:15:12.188Z,3.8
2022-12-17T05:20:56.916Z,3.9
2022-12-17T05:26:38.552Z,3.9
2022-12-17T05:32:24.571Z,4.3
2022-12-17T05:38:02.362Z,4.3
2022-12-17T05:43:40.380Z,4.7
2022-12-17T05:49:18.513Z,4.8
2022-12-17T05:55:00.708Z,4.9
2022-12-17T06:00:28.816Z,4.9
2022-12-17T06:05:52.819Z,4.9
2022-12-17T06:11:29.879Z,4.9
2022-12-17T06:16:53.532Z,5
2022-12-17T06:22:17.340Z,5.3
2022-12-17T06:27:55.233Z,6.1
2022-12-17T06:33:33.722Z,9.9
2022-12-17T06:39:14.518Z,14.3
2022-12-17T06:44:56.297Z,16.8
2022-12-17T06:50:35.953Z,16.9
2022-12-17T06:56:14.194Z,18.1
2022-12-17T07:01:56.660Z,23.7
2022-12-17T07:07:35.811Z,25.7
2022-12-17T07:13:22.330Z,24.8
2022-12-17T07:18:59.467Z,23.8
2022-12-17T07:24:21.818Z,22.3
2022-12-17T07:29:45.341Z,20.9
2022-12-17T07:35:28.168Z,19.9
2022-12-17T07:41:06.698Z,18.8
2022-12-17T07:46:45.781Z,17.9
2022-12-17T07:52:22.652Z,17.1
2022-12-17T07:57:49.735Z,16.4
2022-12-17T08:03:29.900Z,16.2
2022-12-17T08:09:11.910Z,17.1
2022-12-17T08:14:40.582Z,17.3
2022-12-17T08:19:55.807Z,17.3
2022-12-17T08:25:34.979Z,16.9
2022-12-17T08:31:55.127Z,16.4
2022-12-17T08:37:34.040Z,16.1
2022-12-17T08:43:16.368Z,17.1
2022-12-17T08:48:56.782Z,23.8
2022-12-17T08:54:34.473Z,26.6
2022-12-17T09:00:12.362Z,26
2022-12-17T09:05:53.508Z,25.1
2022-12-17T09:11:31.194Z,24.4
2022-12-17T09:17:09.075Z,24.2
2022-12-17T09:22:47.950Z,23.9
2022-12-17T09:28:31.911Z,23.2
2022-12-17T09:34:13.823Z,22.4
2022-12-17T09:39:58.196Z,21.5
2022-12-17T09:45:26.101Z,20.6
2022-12-17T09:50:52.809Z,19.7
2022-12-17T10:01:54.145Z,17.9
2022-12-17T10:07:34.829Z,17.2
2022-12-17T10:13:19.213Z,16.5
2022-12-17T10:18:58.369Z,15.9
2022-12-17T10:24:40.082Z,15.3
2022-12-17T10:30:22.499Z,14.6
2022-12-17T10:35:44.623Z,14.1
2022-12-17T10:41:22.016Z,13.7
2022-12-17T10:47:07.102Z,13.3
2022-12-17T10:52:49.276Z,12.9
2022-12-17T10:58:32.276Z,12.9
2022-12-17T11:04:02.963Z,14.2
2022-12-17T11:09:47.787Z,19.9
2022-12-17T11:15:39.674Z,23.1
2022-12-17T11:21:20.368Z,23.1
2022-12-17T11:26:58.408Z,22.4
2022-12-17T11:32:35.509Z,21.6
2022-12-17T11:38:21.931Z,20.9
2022-12-17T11:44:01.890Z,20.3
2022-12-17T11:49:12.315Z,19.6
2022-12-17T11:54:57.094Z,19.1
2022-12-17T12:00:42.993Z,18.6
2022-12-17T12:06:28.866Z,18
2022-12-17T12:12:06.852Z,17.8
2022-12-17T12:17:45.240Z,17.6
2022-12-17T12:23:25.384Z,19.1
2022-12-17T12:29:09.210Z,22.6
2022-12-17T12:34:53.174Z,23.3
2022-12-17T12:40:31.389Z,23.6
2022-12-17T12:46:09.349Z,23.6
2022-12-17T12:51:50.904Z,23.6
2022-12-17T12:57:33.745Z,23.3
2022-12-17T13:03:14.394Z,22.8
2022-12-17T13:08:41.174Z,21.9
2022-12-17T13:14:27.158Z,21.2
2022-12-17T13:20:06.659Z,20.4
2022-12-17T13:25:50.173Z,19.9
2022-12-17T13:31:34.591Z,19.6
2022-12-17T13:36:59.225Z,19.3
2022-12-17T13:42:38.846Z,19.1
2022-12-17T13:48:16.058Z,18.8
2022-12-17T13:54:31.702Z,18.4
2022-12-17T14:00:11.908Z,18.8
2022-12-17T14:06:22.641Z,19.6
2022-12-17T14:12:00.446Z,20.3
2022-12-17T14:17:41.415Z,20.4
2022-12-17T14:23:07.830Z,20
2022-12-17T14:28:49.980Z,19.4
2022-12-17T14:35:16.735Z,18.8
2022-12-17T14:41:15.868Z,18.2
2022-12-17T14:46:57.590Z,17.5
2022-12-17T14:52:36.150Z,16.8
2022-12-17T14:58:13.929Z,16.1
2022-12-17T15:03:58.731Z,15.3
2022-12-17T15:09:21.259Z,14.5
2022-12-17T15:14:46.944Z,13.8
2022-12-17T15:20:30.382Z,13.2
2022-12-17T15:25:43.713Z,12.5
2022-12-17T15:31:08.165Z,11.9
2022-12-17T15:36:49.842Z,11.4
2022-12-17T15:42:30.472Z,10.9
2022-12-17T15:48:11.252Z,10.5
2022-12-17T15:53:56.502Z,10
2022-12-17T15:59:36.801Z,9.6
2022-12-17T16:04:51.904Z,9.1
2022-12-17T16:10:35.659Z,8.8
2022-12-17T16:21:24.579Z,8.3
2022-12-17T16:26:53.446Z,8
2022-12-17T16:32:36.019Z,7.8
2022-12-17T16:38:16.516Z,7.5
2022-12-17T16:43:59.622Z,7.3
2022-12-17T16:49:38.701Z,7.2
2022-12-17T16:55:24.578Z,7
2022-12-17T17:00:52.279Z,7
2022-12-17T17:06:35.997Z,6.9
2022-12-17T17:12:13.954Z,6.8
2022-12-17T17:18:12.223Z,6.6
2022-12-17T17:23:51.614Z,6.5
2022-12-17T17:29:49.642Z,6.4
2022-12-17T17:36:08.143Z,6.3
2022-12-17T17:41:47.205Z,6.2
2022-12-17T17:47:25.948Z,6.1
2022-12-17T17:53:45.043Z,6
2022-12-17T17:59:26.579Z,5.9
2022-12-17T18:05:09.253Z,5.8
2022-12-17T18:11:18.986Z,5.6
2022-12-17T18:17:15.388Z,5.7
2022-12-17T18:22:55.890Z,5.8
2022-12-17T18:28:34.309Z,5.8
2022-12-17T18:33:57.380Z,6
2022-12-17T18:39:34.778Z,6.1
2022-12-17T18:45:18.765Z,6.3
2022-12-17T18:51:02.504Z,6.4
2022-12-17T18:57:17.172Z,6.5
2022-12-17T19:02:57.046Z,6.6
2022-12-17T19:08:39.896Z,6.7
2022-12-17T19:14:19.509Z,6.8
2022-12-17T19:19:58.458Z,6.9
2022-12-17T19:25:35.842Z,6.9
2022-12-17T19:31:02.120Z,7
2022-12-17T19:36:45.002Z,7.1
2022-12-17T19:42:23.094Z,7.1
2022-12-17T19:48:01.329Z,7.1
2022-12-17T19:53:42.718Z,7.1
2022-12-17T19:59:28.550Z,7
2022-12-17T20:05:08.623Z,7
2022-12-17T20:10:47.142Z,7.1
2022-12-17T20:16:29.793Z,7.1
2022-12-17T20:22:07.572Z,7.1
2022-12-17T20:27:45.204Z,7.1
2022-12-17T20:32:56.675Z,7.1
2022-12-17T20:38:19.401Z,7.1
2022-12-17T20:44:00.159Z,7.1
2022-12-17T20:49:26.744Z,7.1
2022-12-17T20:55:05.473Z,7.1
2022-12-17T21:00:49.338Z,7.1
2022-12-17T21:06:29.497Z,7.1
2022-12-17T21:12:13.924Z,7.1
2022-12-17T21:17:28.443Z,7.1
2022-12-17T21:23:01.083Z,7.1
2022-12-17T21:28:28.137Z,7.1
2022-12-17T21:33:08.222Z,7
2022-12-17T21:38:22.227Z,6.9
2022-12-17T21:43:47.804Z,6.9
2022-12-17T21:49:32.576Z,6.9
2022-12-17T21:55:12.736Z,6.8
2022-12-17T22:00:36.196Z,6.8
2022-12-17T22:06:34.666Z,6.8
2022-12-17T22:13:47.129Z,6.6
2022-12-17T22:19:27.377Z,6.6
2022-12-17T22:24:53.528Z,6.6
2022-12-17T22:30:18.346Z,6.5
2022-12-17T22:46:21.803Z,6.3
2022-12-17T22:52:35.084Z,6.3
2022-12-17T22:59:21.985Z,6.3
2022-12-17T23:05:07.334Z,6.2
2022-12-17T23:10:45.815Z,6.1
2022-12-17T23:16:23.643Z,6
2022-12-17T23:22:01.217Z,6
2022-12-17T23:27:26.643Z,5.9
2022-12-17T23:33:04.501Z,5.9
2022-12-17T23:38:30.571Z,5.8
2022-12-17T23:44:10.160Z,5.7
2022-12-17T23:49:52.512Z,5.6
2022-12-17T23:55:31.105Z,5.6
